Miguel Oliver — ECLX — position and weather

sailwx.info

Track history (hours):
 
Tides and Currents Weather Stations Pressure Air Temp Water Temp Dewpoint Dewpoint Depression Visibility Wind Speed Wind Dir Waves Ship Positions

Oceanographic research ship Miguel Oliver (Spain)

Ship's website: http://www.mapa.es/es/pesca/pags/miguel_web/index.htm

Last reported at 2015-Mar-09 12:33 UTC. Time now 2015-Mar-29 22:22 UTC.
Position N 39°24' W 009°45'.
Warning: this ship's position is 20 days out of date.

Length 70 m; draft 4.8 m.

Type: Other ship. MMSI: 225322000.

Date/timePositionNaut miles runAvg speedWind from/ knotsBaromVisibWave heightAir tempDewpointWater temp
2015-Mar-09 12:33N 39°24' W 009°45'1511.1
2015-Mar-09 11:14N 39°09' W 009°47'711.2
2015-Mar-09 10:34N 39°02' W 009°48'1111.1
2015-Mar-09 09:33N 38°51' W 009°50'1111.0
2015-Mar-09 08:33N 38°40' W 009°49'1111.4
2015-Mar-09 07:34N 38°29' W 009°46'1111.3
2015-Mar-09 06:33N 38°18' W 009°42'1111.1
2015-Mar-09 05:34N 38°07' W 009°39'1111.2
2015-Mar-09 04:33N 37°56' W 009°36'1211.6
2015-Mar-09 03:34N 37°44' W 009°33'1211.7
2015-Mar-09 02:33N 37°33' W 009°30'1211.6
2015-Mar-09 01:33N 37°22' W 009°26'1111.3
2015-Mar-09 00:33N 37°11' W 009°23'1111.4
2015-Mar-08 23:33N 36°60' W 009°20'1110.9
2015-Mar-08 22:33N 36°50' W 009°14'1111.0
2015-Mar-08 21:33N 36°44' W 009°02'1111.5
2015-Mar-08 20:33N 36°43' W 008°48'1111.5
2015-Mar-08 19:33N 36°42' W 008°34'1111.4
2015-Mar-08 18:33N 36°41' W 008°19'1111.3
2015-Mar-08 17:33N 36°40' W 008°05'1211.8
2015-Mar-08 16:33N 36°39' W 007°51'1211.8
2015-Mar-08 15:33N 36°38' W 007°36'  
Track history (hours):
 
Tides and Currents Weather Stations Pressure Air Temp Water Temp Dewpoint Dewpoint Depression Visibility Wind Speed Wind Dir Waves Ship Positions

Oceanographic research ship Miguel Oliver (Spain)

Ship's website: http://www.mapa.es/es/pesca/pags/miguel_web/index.htm

Last reported at 2015-Mar-09 12:33 UTC. Time now 2015-Mar-29 22:22 UTC.
Position N 39°24' W 009°45'.
Warning: this ship's position is 20 days out of date.

Length 70 m; draft 4.8 m.

Type: Other ship. MMSI: 225322000.

Date/timePositionNaut miles runAvg speedWind from/ knotsBaromVisibWave heightAir tempDewpointWater temp
2015-Mar-09 12:33N 39°24' W 009°45'1511.1
2015-Mar-09 11:14N 39°09' W 009°47'711.2
2015-Mar-09 10:34N 39°02' W 009°48'1111.1
2015-Mar-09 09:33N 38°51' W 009°50'1111.0
2015-Mar-09 08:33N 38°40' W 009°49'1111.4
2015-Mar-09 07:34N 38°29' W 009°46'1111.3
2015-Mar-09 06:33N 38°18' W 009°42'1111.1
2015-Mar-09 05:34N 38°07' W 009°39'1111.2
2015-Mar-09 04:33N 37°56' W 009°36'1211.6
2015-Mar-09 03:34N 37°44' W 009°33'1211.7
2015-Mar-09 02:33N 37°33' W 009°30'1211.6
2015-Mar-09 01:33N 37°22' W 009°26'1111.3
2015-Mar-09 00:33N 37°11' W 009°23'1111.4
2015-Mar-08 23:33N 36°60' W 009°20'1110.9
2015-Mar-08 22:33N 36°50' W 009°14'1111.0
2015-Mar-08 21:33N 36°44' W 009°02'1111.5
2015-Mar-08 20:33N 36°43' W 008°48'1111.5
2015-Mar-08 19:33N 36°42' W 008°34'1111.4
2015-Mar-08 18:33N 36°41' W 008°19'1111.3
2015-Mar-08 17:33N 36°40' W 008°05'1211.8
2015-Mar-08 16:33N 36°39' W 007°51'1211.8
2015-Mar-08 15:33N 36°38' W 007°36'  

Dump ship's entire track history